LGX43B LIBP-LIRI
Flight info
| Callsign | LGX43B |
|---|---|
| Flight time | 0h 57m |
| Altitude | 20000 |
| Route | ASPIR Z924 MOPUV DCT TEA DCT ISKIA M603 SOR |
| Aircraft | BE9L/L-SDFGRWY/S |
Departure
| Time | 2026-04-24 20:00 |
|---|---|
| Airport | Abruzzo Airport (LIBP) |
Arrival
| Time | 2026-04-24 20:57 |
|---|---|
| Airport | Salerno Costa d'Amalfi Airport (LIRI) |
| Time | Latitude | Longitude | Altitude | Speed | Heading |
|---|---|---|---|---|---|
| 2026-04-24 19:53 | 42.43070 | 14.18597 | 37 ft | 0 kts | 123° |
| 2026-04-24 19:56 | 42.43070 | 14.18599 | 37 ft | 2 kts | 117° |
| 2026-04-24 19:56 | 42.43113 | 14.18652 | 37 ft | 14 kts | 38° |
| 2026-04-24 19:56 | 42.43208 | 14.18752 | 36 ft | 14 kts | 36° |
| 2026-04-24 19:57 | 42.43327 | 14.18797 | 34 ft | 22 kts | 26° |
| 2026-04-24 19:57 | 42.43473 | 14.18932 | 32 ft | 28 kts | 30° |
| 2026-04-24 19:57 | 42.43634 | 14.19107 | 30 ft | 31 kts | 40° |
| 2026-04-24 19:57 | 42.43793 | 14.19274 | 29 ft | 9 kts | 36° |
| 2026-04-24 19:58 | 42.43809 | 14.19286 | 29 ft | 7 kts | 27° |
| 2026-04-24 19:58 | 42.43878 | 14.19244 | 28 ft | 16 kts | 308° |
| 2026-04-24 19:58 | 42.43898 | 14.19095 | 28 ft | 19 kts | 219° |
| 2026-04-24 19:58 | 42.43850 | 14.19044 | 29 ft | 0 kts | 218° |
| 2026-04-24 19:59 | 42.43830 | 14.19023 | 30 ft | 19 kts | 218° |
| 2026-04-24 19:59 | 42.43499 | 14.18682 | 34 ft | 95 kts | 219° |
| 2026-04-24 19:59 | 42.42846 | 14.18008 | 69 ft | 133 kts | 218° |
| 2026-04-24 19:59 | 42.42069 | 14.17272 | 412 ft | 139 kts | 218° |
| 2026-04-24 20:00 | 42.41278 | 14.16458 | 802 ft | 146 kts | 220° |
| 2026-04-24 20:00 | 42.40481 | 14.15618 | 1245 ft | 148 kts | 220° |
| 2026-04-24 20:00 | 42.39665 | 14.14755 | 1672 ft | 151 kts | 221° |
| 2026-04-24 20:00 | 42.38849 | 14.13892 | 2113 ft | 151 kts | 221° |
| 2026-04-24 20:01 | 42.38125 | 14.12875 | 2512 ft | 152 kts | 248° |
| 2026-04-24 20:01 | 42.38029 | 14.11516 | 3013 ft | 145 kts | 281° |
| 2026-04-24 20:01 | 42.38310 | 14.10214 | 3399 ft | 147 kts | 293° |
| 2026-04-24 20:01 | 42.38731 | 14.08958 | 3792 ft | 149 kts | 298° |
| 2026-04-24 20:02 | 42.39045 | 14.08128 | 4101 ft | 148 kts | 299° |
| 2026-04-24 20:02 | 42.39563 | 14.06831 | 4556 ft | 150 kts | 301° |
| 2026-04-24 20:02 | 42.40067 | 14.05601 | 4974 ft | 152 kts | 302° |
| 2026-04-24 20:02 | 42.40599 | 14.04361 | 5365 ft | 154 kts | 310° |
| 2026-04-24 20:03 | 42.41513 | 14.03672 | 5716 ft | 157 kts | 356° |
| 2026-04-24 20:03 | 42.42502 | 14.04155 | 6256 ft | 157 kts | 40° |
| 2026-04-24 20:03 | 42.43206 | 14.05252 | 6794 ft | 157 kts | 47° |
| 2026-04-24 20:03 | 42.43913 | 14.06385 | 7273 ft | 158 kts | 46° |
| 2026-04-24 20:04 | 42.44629 | 14.07498 | 7768 ft | 159 kts | 46° |
| 2026-04-24 20:04 | 42.45320 | 14.08653 | 8239 ft | 162 kts | 59° |
| 2026-04-24 20:04 | 42.45435 | 14.10199 | 8680 ft | 171 kts | 98° |
| 2026-04-24 20:04 | 42.44981 | 14.11656 | 9180 ft | 172 kts | 116° |
| 2026-04-24 20:05 | 42.44325 | 14.13012 | 9593 ft | 176 kts | 121° |
| 2026-04-24 20:05 | 42.43595 | 14.14353 | 10037 ft | 177 kts | 122° |
| 2026-04-24 20:05 | 42.42750 | 14.15566 | 10512 ft | 183 kts | 146° |
| 2026-04-24 20:05 | 42.41513 | 14.15831 | 10954 ft | 190 kts | 191° |
| 2026-04-24 20:06 | 42.40366 | 14.14994 | 11449 ft | 189 kts | 218° |
| 2026-04-24 20:06 | 42.39384 | 14.13848 | 11880 ft | 191 kts | 221° |
| 2026-04-24 20:06 | 42.38400 | 14.12637 | 12361 ft | 192 kts | 221° |
| 2026-04-24 20:06 | 42.37417 | 14.11417 | 12849 ft | 192 kts | 220° |
| 2026-04-24 20:07 | 42.36765 | 14.10606 | 13170 ft | 192 kts | 220° |
| 2026-04-24 20:07 | 42.35460 | 14.08982 | 13798 ft | 191 kts | 219° |
| 2026-04-24 20:07 | 42.34479 | 14.07763 | 14256 ft | 191 kts | 219° |
| 2026-04-24 20:07 | 42.33516 | 14.06566 | 14696 ft | 191 kts | 219° |
| 2026-04-24 20:08 | 42.32547 | 14.05313 | 15126 ft | 193 kts | 228° |
| 2026-04-24 20:08 | 42.31808 | 14.03803 | 15549 ft | 193 kts | 238° |
| 2026-04-24 20:08 | 42.31134 | 14.02247 | 15972 ft | 192 kts | 238° |
| 2026-04-24 20:08 | 42.30470 | 14.00698 | 16369 ft | 193 kts | 238° |
| 2026-04-24 20:09 | 42.29793 | 13.99118 | 16770 ft | 192 kts | 238° |
| 2026-04-24 20:09 | 42.29128 | 13.97565 | 17150 ft | 193 kts | 238° |
| 2026-04-24 20:09 | 42.28460 | 13.96006 | 17522 ft | 193 kts | 238° |
| 2026-04-24 20:09 | 42.27792 | 13.94446 | 17893 ft | 192 kts | 238° |
| 2026-04-24 20:10 | 42.27116 | 13.92872 | 18254 ft | 192 kts | 238° |
| 2026-04-24 20:10 | 42.26454 | 13.91328 | 18596 ft | 193 kts | 238° |
| 2026-04-24 20:10 | 42.25781 | 13.89761 | 18917 ft | 196 kts | 238° |
| 2026-04-24 20:10 | 42.25091 | 13.88155 | 19373 ft | 196 kts | 238° |
| 2026-04-24 20:11 | 42.24419 | 13.86593 | 19809 ft | 197 kts | 238° |
| 2026-04-24 20:11 | 42.23714 | 13.84954 | 20091 ft | 207 kts | 238° |
| 2026-04-24 20:11 | 42.22953 | 13.83189 | 20122 ft | 228 kts | 238° |
| 2026-04-24 20:11 | 42.22125 | 13.81263 | 20119 ft | 244 kts | 238° |
| 2026-04-24 20:12 | 42.21263 | 13.79259 | 20112 ft | 255 kts | 238° |
| 2026-04-24 20:12 | 42.20358 | 13.77158 | 20106 ft | 263 kts | 238° |
| 2026-04-24 20:12 | 42.19737 | 13.75719 | 20104 ft | 267 kts | 238° |
| 2026-04-24 20:12 | 42.18586 | 13.72719 | 20083 ft | 274 kts | 248° |
| 2026-04-24 20:13 | 42.17912 | 13.70295 | 20100 ft | 276 kts | 249° |
| 2026-04-24 20:13 | 42.17234 | 13.67875 | 20078 ft | 278 kts | 249° |
| 2026-04-24 20:13 | 42.16546 | 13.65428 | 20090 ft | 279 kts | 249° |
| 2026-04-24 20:13 | 42.15858 | 13.62987 | 20078 ft | 280 kts | 249° |
| 2026-04-24 20:14 | 42.15166 | 13.60536 | 20080 ft | 281 kts | 249° |
| 2026-04-24 20:14 | 42.14476 | 13.58096 | 20077 ft | 281 kts | 249° |
| 2026-04-24 20:14 | 42.13781 | 13.55639 | 20077 ft | 281 kts | 249° |
| 2026-04-24 20:14 | 42.13079 | 13.53157 | 20077 ft | 281 kts | 249° |
| 2026-04-24 20:15 | 42.12386 | 13.50718 | 20078 ft | 281 kts | 248° |
| 2026-04-24 20:15 | 42.11293 | 13.48587 | 20025 ft | 278 kts | 216° |
| 2026-04-24 20:15 | 42.09562 | 13.47663 | 20096 ft | 265 kts | 180° |
| 2026-04-24 20:15 | 42.07832 | 13.48203 | 20069 ft | 253 kts | 144° |
| 2026-04-24 20:16 | 42.06637 | 13.49850 | 20133 ft | 245 kts | 124° |
| 2026-04-24 20:16 | 42.05598 | 13.51686 | 20065 ft | 249 kts | 127° |
| 2026-04-24 20:16 | 42.04321 | 13.53270 | 20079 ft | 252 kts | 140° |
| 2026-04-24 20:16 | 42.02835 | 13.54548 | 20080 ft | 255 kts | 147° |
| 2026-04-24 20:17 | 42.01260 | 13.55656 | 20080 ft | 256 kts | 150° |
| 2026-04-24 20:17 | 41.98018 | 13.57670 | 20078 ft | 257 kts | 152° |
| 2026-04-24 20:17 | 41.96386 | 13.58638 | 20077 ft | 257 kts | 152° |
| 2026-04-24 20:18 | 41.95306 | 13.59272 | 20077 ft | 257 kts | 152° |
| 2026-04-24 20:18 | 41.93106 | 13.60558 | 20077 ft | 257 kts | 152° |
| 2026-04-24 20:18 | 41.91468 | 13.61513 | 20077 ft | 257 kts | 152° |
| 2026-04-24 20:18 | 41.89844 | 13.62458 | 20077 ft | 257 kts | 152° |
| 2026-04-24 20:19 | 41.88198 | 13.63414 | 20076 ft | 257 kts | 152° |
| 2026-04-24 20:19 | 41.86559 | 13.64366 | 20076 ft | 257 kts | 152° |
| 2026-04-24 20:19 | 41.84909 | 13.65324 | 20076 ft | 257 kts | 152° |
| 2026-04-24 20:19 | 41.83280 | 13.66268 | 20076 ft | 257 kts | 152° |
| 2026-04-24 20:20 | 41.81632 | 13.67224 | 20076 ft | 257 kts | 152° |
| 2026-04-24 20:20 | 41.80007 | 13.68165 | 20076 ft | 257 kts | 152° |
| 2026-04-24 20:20 | 41.78368 | 13.69114 | 20076 ft | 257 kts | 152° |
| 2026-04-24 20:20 | 41.76719 | 13.70068 | 20076 ft | 257 kts | 152° |
| 2026-04-24 20:21 | 41.75087 | 13.71012 | 20076 ft | 257 kts | 152° |
| 2026-04-24 20:21 | 41.73423 | 13.71974 | 20068 ft | 258 kts | 152° |
| 2026-04-24 20:21 | 41.71790 | 13.72918 | 20079 ft | 258 kts | 152° |
| 2026-04-24 20:21 | 41.70140 | 13.73871 | 20076 ft | 259 kts | 152° |
| 2026-04-24 20:22 | 41.68477 | 13.74830 | 20077 ft | 259 kts | 152° |
| 2026-04-24 20:22 | 41.66811 | 13.75791 | 20082 ft | 259 kts | 152° |
| 2026-04-24 20:22 | 41.65176 | 13.76733 | 20074 ft | 259 kts | 152° |
| 2026-04-24 20:22 | 41.63524 | 13.77685 | 20076 ft | 258 kts | 152° |
| 2026-04-24 20:23 | 41.61871 | 13.78637 | 20075 ft | 258 kts | 152° |
| 2026-04-24 20:23 | 41.60229 | 13.79581 | 20075 ft | 258 kts | 152° |
| 2026-04-24 20:23 | 41.58579 | 13.80531 | 20075 ft | 258 kts | 152° |
| 2026-04-24 20:23 | 41.56928 | 13.81480 | 20076 ft | 258 kts | 152° |
| 2026-04-24 20:24 | 41.55847 | 13.82101 | 20076 ft | 258 kts | 152° |
| 2026-04-24 20:24 | 41.53653 | 13.83360 | 20076 ft | 258 kts | 152° |
| 2026-04-24 20:24 | 41.52002 | 13.84308 | 20076 ft | 258 kts | 152° |
| 2026-04-24 20:24 | 41.50349 | 13.85256 | 20076 ft | 258 kts | 152° |
| 2026-04-24 20:25 | 41.48725 | 13.86187 | 20076 ft | 258 kts | 152° |
| 2026-04-24 20:25 | 41.47083 | 13.87128 | 20076 ft | 258 kts | 152° |
| 2026-04-24 20:25 | 41.45437 | 13.88071 | 20076 ft | 258 kts | 152° |
| 2026-04-24 20:25 | 41.43792 | 13.89012 | 20085 ft | 257 kts | 152° |
| 2026-04-24 20:26 | 41.42143 | 13.89955 | 20104 ft | 257 kts | 152° |
| 2026-04-24 20:26 | 41.40513 | 13.90887 | 20102 ft | 257 kts | 152° |
| 2026-04-24 20:26 | 41.38879 | 13.91820 | 20103 ft | 257 kts | 152° |
| 2026-04-24 20:26 | 41.37232 | 13.92761 | 20103 ft | 257 kts | 152° |
| 2026-04-24 20:27 | 41.35581 | 13.93703 | 20103 ft | 257 kts | 152° |
| 2026-04-24 20:27 | 41.33943 | 13.94637 | 20103 ft | 257 kts | 152° |
| 2026-04-24 20:27 | 41.32310 | 13.95568 | 20103 ft | 257 kts | 152° |
| 2026-04-24 20:27 | 41.30666 | 13.96498 | 20100 ft | 258 kts | 154° |
| 2026-04-24 20:28 | 41.28864 | 13.96800 | 20105 ft | 266 kts | 177° |
| 2026-04-24 20:28 | 41.26998 | 13.96650 | 20111 ft | 268 kts | 180° |
| 2026-04-24 20:28 | 41.25144 | 13.96439 | 20100 ft | 268 kts | 180° |
| 2026-04-24 20:28 | 41.23290 | 13.96209 | 20096 ft | 269 kts | 182° |
| 2026-04-24 20:29 | 41.22040 | 13.96049 | 20100 ft | 270 kts | 182° |
| 2026-04-24 20:29 | 41.19553 | 13.95722 | 20104 ft | 271 kts | 183° |
| 2026-04-24 20:29 | 41.17692 | 13.95476 | 20104 ft | 271 kts | 183° |
| 2026-04-24 20:29 | 41.15805 | 13.95226 | 20105 ft | 270 kts | 183° |
| 2026-04-24 20:30 | 41.13982 | 13.94983 | 19966 ft | 265 kts | 183° |
| 2026-04-24 20:30 | 41.12153 | 13.94742 | 19751 ft | 263 kts | 183° |
| 2026-04-24 20:30 | 41.10332 | 13.94501 | 19535 ft | 262 kts | 183° |
| 2026-04-24 20:30 | 41.08513 | 13.94261 | 19248 ft | 264 kts | 183° |
| 2026-04-24 20:31 | 41.06695 | 13.94021 | 19053 ft | 262 kts | 183° |
| 2026-04-24 20:31 | 41.04906 | 13.93784 | 18855 ft | 261 kts | 183° |
| 2026-04-24 20:31 | 41.03100 | 13.93546 | 18635 ft | 261 kts | 183° |
| 2026-04-24 20:31 | 41.01285 | 13.93307 | 18389 ft | 262 kts | 183° |
| 2026-04-24 20:32 | 40.99474 | 13.93068 | 18147 ft | 263 kts | 183° |
| 2026-04-24 20:32 | 40.97641 | 13.92827 | 17901 ft | 263 kts | 183° |
| 2026-04-24 20:32 | 40.95831 | 13.92588 | 17659 ft | 264 kts | 183° |
| 2026-04-24 20:32 | 40.93995 | 13.92347 | 17412 ft | 263 kts | 183° |
| 2026-04-24 20:33 | 40.92168 | 13.92106 | 17160 ft | 263 kts | 184° |
| 2026-04-24 20:33 | 40.90371 | 13.91870 | 16915 ft | 262 kts | 184° |
| 2026-04-24 20:33 | 40.88537 | 13.91629 | 16662 ft | 262 kts | 184° |
| 2026-04-24 20:33 | 40.86692 | 13.91387 | 16406 ft | 262 kts | 184° |
| 2026-04-24 20:34 | 40.84891 | 13.91150 | 16157 ft | 262 kts | 185° |
| 2026-04-24 20:34 | 40.83066 | 13.90911 | 15910 ft | 261 kts | 185° |
| 2026-04-24 20:34 | 40.81244 | 13.90672 | 15673 ft | 261 kts | 185° |
| 2026-04-24 20:34 | 40.79457 | 13.90438 | 15423 ft | 260 kts | 185° |
| 2026-04-24 20:35 | 40.77643 | 13.90200 | 15181 ft | 262 kts | 185° |
| 2026-04-24 20:35 | 40.75828 | 13.89963 | 14960 ft | 263 kts | 186° |
| 2026-04-24 20:35 | 40.73950 | 13.89717 | 14689 ft | 265 kts | 186° |
| 2026-04-24 20:35 | 40.72046 | 13.89472 | 14456 ft | 262 kts | 185° |
| 2026-04-24 20:36 | 40.70256 | 13.89972 | 14120 ft | 263 kts | 149° |
| 2026-04-24 20:36 | 40.68994 | 13.91677 | 13910 ft | 256 kts | 121° |
| 2026-04-24 20:36 | 40.68187 | 13.93745 | 13692 ft | 253 kts | 112° |
| 2026-04-24 20:36 | 40.67540 | 13.95882 | 13445 ft | 253 kts | 108° |
| 2026-04-24 20:37 | 40.66953 | 13.98064 | 13211 ft | 252 kts | 107° |
| 2026-04-24 20:37 | 40.66382 | 14.00304 | 12957 ft | 252 kts | 106° |
| 2026-04-24 20:37 | 40.65843 | 14.02475 | 12717 ft | 251 kts | 105° |
| 2026-04-24 20:37 | 40.65308 | 14.04652 | 12475 ft | 250 kts | 105° |
| 2026-04-24 20:38 | 40.64769 | 14.06856 | 12234 ft | 250 kts | 105° |
| 2026-04-24 20:38 | 40.64244 | 14.09009 | 11985 ft | 248 kts | 105° |
| 2026-04-24 20:38 | 40.63715 | 14.11177 | 11735 ft | 247 kts | 105° |
| 2026-04-24 20:38 | 40.63189 | 14.13329 | 11485 ft | 246 kts | 105° |
| 2026-04-24 20:39 | 40.62667 | 14.15469 | 11235 ft | 246 kts | 105° |
| 2026-04-24 20:39 | 40.62144 | 14.17607 | 10989 ft | 245 kts | 105° |
| 2026-04-24 20:39 | 40.61627 | 14.19720 | 10744 ft | 244 kts | 105° |
| 2026-04-24 20:39 | 40.61109 | 14.21834 | 10504 ft | 243 kts | 105° |
| 2026-04-24 20:40 | 40.60590 | 14.23953 | 10255 ft | 240 kts | 105° |
| 2026-04-24 20:40 | 40.60084 | 14.26012 | 9995 ft | 237 kts | 104° |
| 2026-04-24 20:40 | 40.59580 | 14.28065 | 9739 ft | 235 kts | 104° |
| 2026-04-24 20:40 | 40.59082 | 14.30093 | 9486 ft | 233 kts | 105° |
| 2026-04-24 20:41 | 40.58209 | 14.31885 | 9150 ft | 241 kts | 139° |
| 2026-04-24 20:41 | 40.56672 | 14.32786 | 8944 ft | 242 kts | 166° |
| 2026-04-24 20:41 | 40.55001 | 14.32814 | 8697 ft | 243 kts | 185° |
| 2026-04-24 20:41 | 40.53285 | 14.32497 | 8458 ft | 242 kts | 187° |
| 2026-04-24 20:42 | 40.51582 | 14.32152 | 8198 ft | 240 kts | 187° |
| 2026-04-24 20:42 | 40.49908 | 14.31813 | 7943 ft | 239 kts | 187° |
| 2026-04-24 20:42 | 40.48262 | 14.31480 | 7661 ft | 240 kts | 187° |
| 2026-04-24 20:42 | 40.46524 | 14.31223 | 7221 ft | 241 kts | 175° |
| 2026-04-24 20:43 | 40.44913 | 14.31897 | 6797 ft | 230 kts | 148° |
| 2026-04-24 20:43 | 40.43561 | 14.33105 | 6342 ft | 223 kts | 140° |
| 2026-04-24 20:43 | 40.42325 | 14.34403 | 5874 ft | 220 kts | 138° |
| 2026-04-24 20:43 | 40.41115 | 14.35725 | 5404 ft | 218 kts | 137° |
| 2026-04-24 20:44 | 40.39917 | 14.37047 | 4934 ft | 216 kts | 137° |
| 2026-04-24 20:44 | 40.38738 | 14.38350 | 4469 ft | 214 kts | 137° |
| 2026-04-24 20:44 | 40.37569 | 14.39643 | 4041 ft | 211 kts | 137° |
| 2026-04-24 20:44 | 40.36454 | 14.40875 | 3980 ft | 192 kts | 137° |
| 2026-04-24 20:45 | 40.35397 | 14.42044 | 4007 ft | 186 kts | 137° |
| 2026-04-24 20:45 | 40.34406 | 14.43140 | 4018 ft | 186 kts | 137° |
| 2026-04-24 20:45 | 40.33705 | 14.44520 | 3987 ft | 182 kts | 98° |
| 2026-04-24 20:45 | 40.33995 | 14.46162 | 4021 ft | 174 kts | 51° |
| 2026-04-24 20:46 | 40.34875 | 14.47224 | 4021 ft | 164 kts | 43° |
| 2026-04-24 20:46 | 40.35643 | 14.48297 | 3995 ft | 157 kts | 49° |
| 2026-04-24 20:46 | 40.36310 | 14.49381 | 3999 ft | 152 kts | 51° |
| 2026-04-24 20:46 | 40.36949 | 14.50477 | 4008 ft | 150 kts | 52° |
| 2026-04-24 20:47 | 40.37579 | 14.51580 | 4023 ft | 152 kts | 52° |
| 2026-04-24 20:47 | 40.38217 | 14.52706 | 4023 ft | 154 kts | 52° |
| 2026-04-24 20:47 | 40.38860 | 14.53845 | 4026 ft | 155 kts | 52° |
| 2026-04-24 20:47 | 40.39499 | 14.54979 | 4026 ft | 156 kts | 52° |
| 2026-04-24 20:48 | 40.40150 | 14.56134 | 4027 ft | 157 kts | 52° |
| 2026-04-24 20:48 | 40.40801 | 14.57291 | 4022 ft | 158 kts | 52° |
| 2026-04-24 20:48 | 40.41454 | 14.58450 | 4025 ft | 158 kts | 52° |
| 2026-04-24 20:48 | 40.42105 | 14.59608 | 4020 ft | 158 kts | 52° |
| 2026-04-24 20:49 | 40.42787 | 14.60745 | 4020 ft | 158 kts | 47° |
| 2026-04-24 20:49 | 40.43541 | 14.61803 | 3927 ft | 158 kts | 46° |
| 2026-04-24 20:49 | 40.44304 | 14.62851 | 3761 ft | 158 kts | 45° |
| 2026-04-24 20:49 | 40.45060 | 14.63883 | 3565 ft | 159 kts | 45° |
| 2026-04-24 20:50 | 40.45833 | 14.64938 | 3368 ft | 160 kts | 45° |
| 2026-04-24 20:50 | 40.46607 | 14.65993 | 3166 ft | 158 kts | 46° |
| 2026-04-24 20:50 | 40.47377 | 14.67043 | 2944 ft | 155 kts | 46° |
| 2026-04-24 20:50 | 40.48120 | 14.68057 | 2723 ft | 153 kts | 46° |
| 2026-04-24 20:51 | 40.48853 | 14.69063 | 2506 ft | 151 kts | 48° |
| 2026-04-24 20:51 | 40.49516 | 14.70131 | 2296 ft | 149 kts | 52° |
| 2026-04-24 20:51 | 40.50153 | 14.71203 | 2087 ft | 148 kts | 52° |
| 2026-04-24 20:51 | 40.50775 | 14.72252 | 2000 ft | 143 kts | 52° |
| 2026-04-24 20:52 | 40.51369 | 14.73254 | 2005 ft | 136 kts | 52° |
| 2026-04-24 20:52 | 40.51953 | 14.74240 | 2015 ft | 137 kts | 52° |
| 2026-04-24 20:52 | 40.52545 | 14.75239 | 2030 ft | 141 kts | 52° |
| 2026-04-24 20:52 | 40.53157 | 14.76274 | 2035 ft | 145 kts | 52° |
| 2026-04-24 20:53 | 40.53788 | 14.77342 | 2034 ft | 149 kts | 51° |
| 2026-04-24 20:53 | 40.54431 | 14.78429 | 2033 ft | 151 kts | 51° |
| 2026-04-24 20:53 | 40.55072 | 14.79514 | 2015 ft | 150 kts | 52° |
| 2026-04-24 20:53 | 40.55704 | 14.80585 | 1803 ft | 145 kts | 52° |
| 2026-04-24 20:54 | 40.56308 | 14.81609 | 1610 ft | 140 kts | 52° |
| 2026-04-24 20:54 | 40.56876 | 14.82570 | 1418 ft | 124 kts | 52° |
| 2026-04-24 20:54 | 40.57377 | 14.83420 | 1303 ft | 117 kts | 52° |
| 2026-04-24 20:54 | 40.57869 | 14.84253 | 1151 ft | 115 kts | 52° |
| 2026-04-24 20:55 | 40.58357 | 14.85081 | 999 ft | 111 kts | 52° |
| 2026-04-24 20:55 | 40.58823 | 14.85870 | 848 ft | 109 kts | 52° |
| 2026-04-24 20:55 | 40.59281 | 14.86647 | 732 ft | 103 kts | 52° |
| 2026-04-24 20:55 | 40.59716 | 14.87386 | 598 ft | 105 kts | 52° |
| 2026-04-24 20:56 | 40.60169 | 14.88155 | 452 ft | 107 kts | 52° |
| 2026-04-24 20:56 | 40.60630 | 14.88936 | 299 ft | 109 kts | 52° |
| 2026-04-24 20:56 | 40.61092 | 14.89721 | 145 ft | 105 kts | 52° |
| 2026-04-24 20:56 | 40.61503 | 14.90433 | 85 ft | 86 kts | 53° |
| 2026-04-24 20:57 | 40.61808 | 14.90940 | 93 ft | 45 kts | 53° |
| 2026-04-24 20:57 | 40.61986 | 14.91240 | 104 ft | 31 kts | 51° |
| 2026-04-24 20:57 | 40.62078 | 14.91402 | 110 ft | 14 kts | 59° |
| 2026-04-24 20:57 | 40.62109 | 14.91489 | 113 ft | 17 kts | 69° |
| 2026-04-24 20:58 | 40.62141 | 14.91629 | 117 ft | 6 kts | 85° |
| 2026-04-24 20:58 | 40.62138 | 14.91742 | 120 ft | 17 kts | 113° |
| 2026-04-24 20:58 | 40.62063 | 14.91850 | 120 ft | 14 kts | 143° |
| 2026-04-24 20:58 | 40.62001 | 14.91909 | 120 ft | 0 kts | 142° |
| 2026-04-24 20:59 | 40.62001 | 14.91910 | 120 ft | 0 kts | 142° |